sensor_id;sensor_type;location;lat;lon;timestamp;temperature;humidity
49184;DHT22;35021;49.214;12.270;2022-07-12T00:01:56;22.20;54.60
49184;DHT22;35021;49.214;12.270;2022-07-12T00:04:23;22.20;54.60
49184;DHT22;35021;49.214;12.270;2022-07-12T00:06:50;22.20;54.60
49184;DHT22;35021;49.214;12.270;2022-07-12T00:09:17;22.20;54.60
49184;DHT22;35021;49.214;12.270;2022-07-12T00:11:45;22.20;54.60
49184;DHT22;35021;49.214;12.270;2022-07-12T00:14:12;22.20;54.60
49184;DHT22;35021;49.214;12.270;2022-07-12T00:16:39;22.20;54.70
49184;DHT22;35021;49.214;12.270;2022-07-12T00:19:07;22.20;54.60
49184;DHT22;35021;49.214;12.270;2022-07-12T00:21:35;22.20;54.60
49184;DHT22;35021;49.214;12.270;2022-07-12T00:24:02;22.20;54.70
49184;DHT22;35021;49.214;12.270;2022-07-12T00:26:29;22.20;54.70
49184;DHT22;35021;49.214;12.270;2022-07-12T00:28:56;22.20;54.70
49184;DHT22;35021;49.214;12.270;2022-07-12T00:31:24;22.20;54.70
49184;DHT22;35021;49.214;12.270;2022-07-12T00:33:52;22.20;54.70
49184;DHT22;35021;49.214;12.270;2022-07-12T00:36:19;22.20;54.70
49184;DHT22;35021;49.214;12.270;2022-07-12T00:38:47;22.20;54.70
49184;DHT22;35021;49.214;12.270;2022-07-12T00:41:14;22.20;54.70
49184;DHT22;35021;49.214;12.270;2022-07-12T00:43:41;22.20;54.60
49184;DHT22;35021;49.214;12.270;2022-07-12T00:46:09;22.20;54.70
49184;DHT22;35021;49.214;12.270;2022-07-12T00:48:37;22.20;55.40
49184;DHT22;35021;49.214;12.270;2022-07-12T00:51:04;22.20;54.70
49184;DHT22;35021;49.214;12.270;2022-07-12T00:53:31;22.20;54.70
49184;DHT22;35021;49.214;12.270;2022-07-12T00:55:59;22.20;54.70
49184;DHT22;35021;49.214;12.270;2022-07-12T00:58:27;22.20;54.70
49184;DHT22;35021;49.214;12.270;2022-07-12T01:00:56;22.20;54.70
49184;DHT22;35021;49.214;12.270;2022-07-12T01:03:24;22.20;54.70
49184;DHT22;35021;49.214;12.270;2022-07-12T01:05:52;22.20;54.70
49184;DHT22;35021;49.214;12.270;2022-07-12T01:08:19;22.20;54.70
49184;DHT22;35021;49.214;12.270;2022-07-12T01:10:48;22.20;54.70
49184;DHT22;35021;49.214;12.270;2022-07-12T01:13:16;22.20;54.70
49184;DHT22;35021;49.214;12.270;2022-07-12T01:15:44;22.20;54.70
49184;DHT22;35021;49.214;12.270;2022-07-12T01:18:12;22.20;54.70
49184;DHT22;35021;49.214;12.270;2022-07-12T01:20:39;22.20;54.80
49184;DHT22;35021;49.214;12.270;2022-07-12T01:23:08;22.20;54.70
49184;DHT22;35021;49.214;12.270;2022-07-12T01:25:36;22.20;54.80
49184;DHT22;35021;49.214;12.270;2022-07-12T01:28:03;22.20;54.80
49184;DHT22;35021;49.214;12.270;2022-07-12T01:30:30;22.10;54.80
49184;DHT22;35021;49.214;12.270;2022-07-12T01:32:59;22.10;54.90
49184;DHT22;35021;49.214;12.270;2022-07-12T01:35:26;22.10;54.90
49184;DHT22;35021;49.214;12.270;2022-07-12T01:37:55;22.10;55.00
49184;DHT22;35021;49.214;12.270;2022-07-12T01:40:22;22.10;55.00
49184;DHT22;35021;49.214;12.270;2022-07-12T01:42:50;22.10;55.00
49184;DHT22;35021;49.214;12.270;2022-07-12T01:45:18;22.10;55.00
49184;DHT22;35021;49.214;12.270;2022-07-12T01:47:45;22.10;55.00
49184;DHT22;35021;49.214;12.270;2022-07-12T01:50:15;22.00;55.00
49184;DHT22;35021;49.214;12.270;2022-07-12T01:52:42;22.10;55.00
49184;DHT22;35021;49.214;12.270;2022-07-12T01:55:10;22.00;55.00
49184;DHT22;35021;49.214;12.270;2022-07-12T01:57:43;22.00;55.00
49184;DHT22;35021;49.214;12.270;2022-07-12T02:00:13;22.00;55.00
49184;DHT22;35021;49.214;12.270;2022-07-12T02:02:41;22.00;55.00
49184;DHT22;35021;49.214;12.270;2022-07-12T02:05:09;22.00;55.00
49184;DHT22;35021;49.214;12.270;2022-07-12T02:07:36;22.00;55.00
49184;DHT22;35021;49.214;12.270;2022-07-12T02:10:05;22.00;55.00
49184;DHT22;35021;49.214;12.270;2022-07-12T02:12:32;22.00;55.00
49184;DHT22;35021;49.214;12.270;2022-07-12T02:14:59;22.00;55.00
49184;DHT22;35021;49.214;12.270;2022-07-12T02:17:27;22.00;55.00
49184;DHT22;35021;49.214;12.270;2022-07-12T02:19:54;22.00;55.00
49184;DHT22;35021;49.214;12.270;2022-07-12T02:22:21;22.10;55.10
49184;DHT22;35021;49.214;12.270;2022-07-12T02:24:48;22.10;55.80
49184;DHT22;35021;49.214;12.270;2022-07-12T02:27:16;22.10;55.10
49184;DHT22;35021;49.214;12.270;2022-07-12T02:29:43;22.10;55.10
49184;DHT22;35021;49.214;12.270;2022-07-12T02:32:10;22.00;55.00
49184;DHT22;35021;49.214;12.270;2022-07-12T02:34:37;22.10;55.10
49184;DHT22;35021;49.214;12.270;2022-07-12T02:37:04;22.10;55.10
49184;DHT22;35021;49.214;12.270;2022-07-12T02:39:31;22.10;55.10
49184;DHT22;35021;49.214;12.270;2022-07-12T02:41:58;22.10;55.10
49184;DHT22;35021;49.214;12.270;2022-07-12T02:44:24;22.10;55.10
49184;DHT22;35021;49.214;12.270;2022-07-12T02:46:51;22.10;55.10
49184;DHT22;35021;49.214;12.270;2022-07-12T02:49:18;22.10;55.10
49184;DHT22;35021;49.214;12.270;2022-07-12T02:51:45;22.10;55.10
49184;DHT22;35021;49.214;12.270;2022-07-12T02:54:12;22.10;55.10
49184;DHT22;35021;49.214;12.270;2022-07-12T02:56:39;22.10;55.10
49184;DHT22;35021;49.214;12.270;2022-07-12T02:59:06;22.10;55.10
49184;DHT22;35021;49.214;12.270;2022-07-12T03:01:33;22.10;55.10
49184;DHT22;35021;49.214;12.270;2022-07-12T03:04:00;22.10;55.10
49184;DHT22;35021;49.214;12.270;2022-07-12T03:06:27;22.10;55.10
49184;DHT22;35021;49.214;12.270;2022-07-12T03:08:54;22.10;55.00
49184;DHT22;35021;49.214;12.270;2022-07-12T03:11:21;22.10;55.10
49184;DHT22;35021;49.214;12.270;2022-07-12T03:13:48;22.10;55.10
49184;DHT22;35021;49.214;12.270;2022-07-12T03:16:15;22.00;55.00
49184;DHT22;35021;49.214;12.270;2022-07-12T03:18:42;22.00;55.10
49184;DHT22;35021;49.214;12.270;2022-07-12T03:21:10;22.00;55.20
49184;DHT22;35021;49.214;12.270;2022-07-12T03:23:38;21.90;55.30
49184;DHT22;35021;49.214;12.270;2022-07-12T03:26:07;21.90;55.40
49184;DHT22;35021;49.214;12.270;2022-07-12T03:28:34;21.80;55.50
49184;DHT22;35021;49.214;12.270;2022-07-12T03:31:00;21.80;55.60
49184;DHT22;35021;49.214;12.270;2022-07-12T03:33:28;21.80;56.40
49184;DHT22;35021;49.214;12.270;2022-07-12T03:35:59;21.70;55.70
49184;DHT22;35021;49.214;12.270;2022-07-12T03:38:27;21.70;55.70
49184;DHT22;35021;49.214;12.270;2022-07-12T03:40:54;21.70;55.70
49184;DHT22;35021;49.214;12.270;2022-07-12T03:43:21;21.70;55.80
49184;DHT22;35021;49.214;12.270;2022-07-12T03:45:48;21.70;55.80
49184;DHT22;35021;49.214;12.270;2022-07-12T03:48:15;21.70;55.80
49184;DHT22;35021;49.214;12.270;2022-07-12T03:50:42;21.60;55.80
49184;DHT22;35021;49.214;12.270;2022-07-12T03:53:09;21.60;55.80
49184;DHT22;35021;49.214;12.270;2022-07-12T03:55:35;21.60;56.00
49184;DHT22;35021;49.214;12.270;2022-07-12T03:58:03;21.60;55.90
49184;DHT22;35021;49.214;12.270;2022-07-12T04:00:30;21.60;56.00
49184;DHT22;35021;49.214;12.270;2022-07-12T04:02:57;21.60;56.00
49184;DHT22;35021;49.214;12.270;2022-07-12T04:05:24;21.60;56.00
49184;DHT22;35021;49.214;12.270;2022-07-12T04:07:54;21.60;56.00
49184;DHT22;35021;49.214;12.270;2022-07-12T04:10:21;21.60;56.00
49184;DHT22;35021;49.214;12.270;2022-07-12T04:12:49;21.60;56.00
49184;DHT22;35021;49.214;12.270;2022-07-12T04:15:17;21.60;56.10
49184;DHT22;35021;49.214;12.270;2022-07-12T04:17:44;21.50;56.10
49184;DHT22;35021;49.214;12.270;2022-07-12T04:20:11;21.50;56.10
49184;DHT22;35021;49.214;12.270;2022-07-12T04:22:38;21.50;56.20
49184;DHT22;35021;49.214;12.270;2022-07-12T04:25:07;21.50;56.90
49184;DHT22;35021;49.214;12.270;2022-07-12T04:27:34;21.50;56.20
49184;DHT22;35021;49.214;12.270;2022-07-12T04:30:01;21.50;56.20
49184;DHT22;35021;49.214;12.270;2022-07-12T04:32:30;21.50;56.20
49184;DHT22;35021;49.214;12.270;2022-07-12T04:34:57;21.50;56.20
49184;DHT22;35021;49.214;12.270;2022-07-12T04:37:24;21.50;56.20
49184;DHT22;35021;49.214;12.270;2022-07-12T04:39:51;21.50;56.20
49184;DHT22;35021;49.214;12.270;2022-07-12T04:42:18;21.50;56.30
49184;DHT22;35021;49.214;12.270;2022-07-12T04:44:45;21.50;56.40
49184;DHT22;35021;49.214;12.270;2022-07-12T04:47:12;21.50;56.40
49184;DHT22;35021;49.214;12.270;2022-07-12T04:49:39;21.50;56.40
49184;DHT22;35021;49.214;12.270;2022-07-12T04:52:06;21.50;56.50
49184;DHT22;35021;49.214;12.270;2022-07-12T04:54:33;21.50;56.50
49184;DHT22;35021;49.214;12.270;2022-07-12T04:57:00;21.50;56.50
49184;DHT22;35021;49.214;12.270;2022-07-12T04:59:27;21.60;56.60
49184;DHT22;35021;49.214;12.270;2022-07-12T05:01:54;21.60;56.60
49184;DHT22;35021;49.214;12.270;2022-07-12T05:04:21;21.60;56.60
49184;DHT22;35021;49.214;12.270;2022-07-12T05:06:48;21.60;56.60
49184;DHT22;35021;49.214;12.270;2022-07-12T05:09:15;21.60;56.60
49184;DHT22;35021;49.214;12.270;2022-07-12T05:11:42;21.60;56.50
49184;DHT22;35021;49.214;12.270;2022-07-12T05:14:09;21.60;56.50
49184;DHT22;35021;49.214;12.270;2022-07-12T05:16:36;21.60;57.10
49184;DHT22;35021;49.214;12.270;2022-07-12T05:19:03;21.60;56.50
49184;DHT22;35021;49.214;12.270;2022-07-12T05:21:30;21.60;56.50
49184;DHT22;35021;49.214;12.270;2022-07-12T05:23:57;21.60;56.60
49184;DHT22;35021;49.214;12.270;2022-07-12T05:26:24;21.60;56.70
49184;DHT22;35021;49.214;12.270;2022-07-12T05:28:51;21.60;56.70
49184;DHT22;35021;49.214;12.270;2022-07-12T05:31:18;21.50;56.70
49184;DHT22;35021;49.214;12.270;2022-07-12T05:33:46;21.60;56.80
49184;DHT22;35021;49.214;12.270;2022-07-12T05:36:12;21.60;56.70
49184;DHT22;35021;49.214;12.270;2022-07-12T05:38:39;21.60;56.70
49184;DHT22;35021;49.214;12.270;2022-07-12T05:41:06;21.60;56.70
49184;DHT22;35021;49.214;12.270;2022-07-12T05:43:33;21.60;56.70
49184;DHT22;35021;49.214;12.270;2022-07-12T05:46:00;21.60;56.70
49184;DHT22;35021;49.214;12.270;2022-07-12T05:48:27;21.60;56.70
49184;DHT22;35021;49.214;12.270;2022-07-12T05:50:54;21.60;56.60
49184;DHT22;35021;49.214;12.270;2022-07-12T05:53:21;21.60;56.60
49184;DHT22;35021;49.214;12.270;2022-07-12T05:55:52;21.60;56.60
49184;DHT22;35021;49.214;12.270;2022-07-12T05:58:20;21.60;56.60
49184;DHT22;35021;49.214;12.270;2022-07-12T06:00:47;21.70;56.60
49184;DHT22;35021;49.214;12.270;2022-07-12T06:03:15;21.70;56.60
49184;DHT22;35021;49.214;12.270;2022-07-12T06:05:43;21.70;56.60
49184;DHT22;35021;49.214;12.270;2022-07-12T06:08:10;21.70;56.50
49184;DHT22;35021;49.214;12.270;2022-07-12T06:10:37;21.70;56.50
49184;DHT22;35021;49.214;12.270;2022-07-12T06:13:04;21.70;56.50
49184;DHT22;35021;49.214;12.270;2022-07-12T06:15:32;21.70;56.30
49184;DHT22;35021;49.214;12.270;2022-07-12T06:18:01;21.70;56.30
49184;DHT22;35021;49.214;12.270;2022-07-12T06:20:28;21.70;56.20
49184;DHT22;35021;49.214;12.270;2022-07-12T06:22:56;21.70;56.20
49184;DHT22;35021;49.214;12.270;2022-07-12T06:25:23;21.70;56.30
49184;DHT22;35021;49.214;12.270;2022-07-12T06:28:10;21.60;56.20
49184;DHT22;35021;49.214;12.270;2022-07-12T06:30:37;21.60;56.30
49184;DHT22;35021;49.214;12.270;2022-07-12T06:33:04;21.50;56.40
49184;DHT22;35021;49.214;12.270;2022-07-12T06:35:31;21.50;56.50
49184;DHT22;35021;49.214;12.270;2022-07-12T06:38:00;21.50;56.60
49184;DHT22;35021;49.214;12.270;2022-07-12T06:40:28;21.50;56.60
49184;DHT22;35021;49.214;12.270;2022-07-12T06:42:55;21.40;56.50
49184;DHT22;35021;49.214;12.270;2022-07-12T06:45:22;21.40;56.60
49184;DHT22;35021;49.214;12.270;2022-07-12T06:47:50;21.40;56.60
49184;DHT22;35021;49.214;12.270;2022-07-12T06:50:17;21.40;56.50
49184;DHT22;35021;49.214;12.270;2022-07-12T06:52:45;21.50;56.50
49184;DHT22;35021;49.214;12.270;2022-07-12T06:55:11;21.50;56.40
49184;DHT22;35021;49.214;12.270;2022-07-12T06:57:38;21.50;56.40
49184;DHT22;35021;49.214;12.270;2022-07-12T07:00:06;21.50;56.30
49184;DHT22;35021;49.214;12.270;2022-07-12T07:02:33;21.50;56.30
49184;DHT22;35021;49.214;12.270;2022-07-12T07:05:00;21.60;56.30
49184;DHT22;35021;49.214;12.270;2022-07-12T07:07:27;21.60;56.20
49184;DHT22;35021;49.214;12.270;2022-07-12T07:09:54;21.60;56.10
49184;DHT22;35021;49.214;12.270;2022-07-12T07:12:21;21.60;56.10
49184;DHT22;35021;49.214;12.270;2022-07-12T07:14:48;21.60;56.10
49184;DHT22;35021;49.214;12.270;2022-07-12T07:17:16;21.60;56.00
49184;DHT22;35021;49.214;12.270;2022-07-12T07:19:44;21.60;55.90
49184;DHT22;35021;49.214;12.270;2022-07-12T07:22:12;21.60;55.90
49184;DHT22;35021;49.214;12.270;2022-07-12T07:24:40;21.60;55.80
49184;DHT22;35021;49.214;12.270;2022-07-12T07:27:07;21.60;55.70
49184;DHT22;35021;49.214;12.270;2022-07-12T07:29:35;21.60;55.60
49184;DHT22;35021;49.214;12.270;2022-07-12T07:32:21;21.60;55.50
49184;DHT22;35021;49.214;12.270;2022-07-12T07:34:48;21.60;55.50
49184;DHT22;35021;49.214;12.270;2022-07-12T07:37:15;21.70;55.50
49184;DHT22;35021;49.214;12.270;2022-07-12T07:39:42;21.70;55.40
49184;DHT22;35021;49.214;12.270;2022-07-12T07:42:09;21.70;55.40
49184;DHT22;35021;49.214;12.270;2022-07-12T07:44:36;21.70;55.40
49184;DHT22;35021;49.214;12.270;2022-07-12T07:47:23;21.70;55.30
49184;DHT22;35021;49.214;12.270;2022-07-12T07:49:50;21.70;55.20
49184;DHT22;35021;49.214;12.270;2022-07-12T07:52:21;21.70;55.20
49184;DHT22;35021;49.214;12.270;2022-07-12T07:54:47;21.70;55.20
49184;DHT22;35021;49.214;12.270;2022-07-12T07:57:14;21.70;55.10
49184;DHT22;35021;49.214;12.270;2022-07-12T07:59:43;21.80;55.00
49184;DHT22;35021;49.214;12.270;2022-07-12T08:02:11;21.80;54.90
49184;DHT22;35021;49.214;12.270;2022-07-12T08:04:39;21.80;54.90
49184;DHT22;35021;49.214;12.270;2022-07-12T08:07:06;21.80;54.80
49184;DHT22;35021;49.214;12.270;2022-07-12T08:09:33;21.80;54.60
49184;DHT22;35021;49.214;12.270;2022-07-12T08:12:00;21.80;54.50
49184;DHT22;35021;49.214;12.270;2022-07-12T08:14:27;21.80;54.40
49184;DHT22;35021;49.214;12.270;2022-07-12T08:16:54;21.80;54.20
49184;DHT22;35021;49.214;12.270;2022-07-12T08:19:21;21.80;53.90
49184;DHT22;35021;49.214;12.270;2022-07-12T08:21:48;21.80;53.80
49184;DHT22;35021;49.214;12.270;2022-07-12T08:24:15;21.80;53.70
49184;DHT22;35021;49.214;12.270;2022-07-12T08:26:42;21.80;53.60
49184;DHT22;35021;49.214;12.270;2022-07-12T08:29:09;21.80;53.60
49184;DHT22;35021;49.214;12.270;2022-07-12T08:31:36;21.80;53.50
49184;DHT22;35021;49.214;12.270;2022-07-12T08:34:03;21.80;53.40
49184;DHT22;35021;49.214;12.270;2022-07-12T08:36:30;21.80;53.40
49184;DHT22;35021;49.214;12.270;2022-07-12T08:39:00;21.80;53.30
49184;DHT22;35021;49.214;12.270;2022-07-12T08:41:27;21.90;53.30
49184;DHT22;35021;49.214;12.270;2022-07-12T08:43:56;21.80;53.20
49184;DHT22;35021;49.214;12.270;2022-07-12T08:46:23;21.80;53.10
49184;DHT22;35021;49.214;12.270;2022-07-12T08:48:50;21.90;53.10
49184;DHT22;35021;49.214;12.270;2022-07-12T08:51:21;21.90;52.80
49184;DHT22;35021;49.214;12.270;2022-07-12T08:53:48;21.90;52.80
49184;DHT22;35021;49.214;12.270;2022-07-12T08:56:37;21.80;52.60
49184;DHT22;35021;49.214;12.270;2022-07-12T08:59:10;21.80;52.50
49184;DHT22;35021;49.214;12.270;2022-07-12T09:01:49;21.80;52.40
49184;DHT22;35021;49.214;12.270;2022-07-12T09:04:22;21.80;52.40
49184;DHT22;35021;49.214;12.270;2022-07-12T09:06:50;21.80;52.40
49184;DHT22;35021;49.214;12.270;2022-07-12T09:09:28;21.80;52.50
49184;DHT22;35021;49.214;12.270;2022-07-12T09:12:00;21.80;52.50
49184;DHT22;35021;49.214;12.270;2022-07-12T09:14:28;21.80;52.20
49184;DHT22;35021;49.214;12.270;2022-07-12T09:17:06;21.70;51.90
49184;DHT22;35021;49.214;12.270;2022-07-12T09:19:37;21.70;51.80
49184;DHT22;35021;49.214;12.270;2022-07-12T09:22:05;21.70;51.70
49184;DHT22;35021;49.214;12.270;2022-07-12T09:24:39;21.80;51.80
49184;DHT22;35021;49.214;12.270;2022-07-12T09:27:09;21.80;51.90
49184;DHT22;35021;49.214;12.270;2022-07-12T09:29:46;21.80;51.90
49184;DHT22;35021;49.214;12.270;2022-07-12T09:32:14;21.80;52.00
49184;DHT22;35021;49.214;12.270;2022-07-12T09:35:00;21.80;52.00
49184;DHT22;35021;49.214;12.270;2022-07-12T09:37:45;21.80;52.10
49184;DHT22;35021;49.214;12.270;2022-07-12T09:40:13;21.90;52.20
49184;DHT22;35021;49.214;12.270;2022-07-12T09:42:41;21.90;52.10
49184;DHT22;35021;49.214;12.270;2022-07-12T09:45:09;21.90;51.90
49184;DHT22;35021;49.214;12.270;2022-07-12T09:47:37;21.90;51.80
49184;DHT22;35021;49.214;12.270;2022-07-12T09:50:05;21.90;51.80
49184;DHT22;35021;49.214;12.270;2022-07-12T09:52:37;22.00;51.70
49184;DHT22;35021;49.214;12.270;2022-07-12T09:55:09;22.00;51.60
49184;DHT22;35021;49.214;12.270;2022-07-12T09:57:40;22.00;51.60
49184;DHT22;35021;49.214;12.270;2022-07-12T10:00:12;22.00;51.60
49184;DHT22;35021;49.214;12.270;2022-07-12T10:02:41;22.00;51.50
49184;DHT22;35021;49.214;12.270;2022-07-12T10:05:11;22.00;51.50
49184;DHT22;35021;49.214;12.270;2022-07-12T10:07:40;22.00;51.40
49184;DHT22;35021;49.214;12.270;2022-07-12T10:10:09;22.00;51.50
49184;DHT22;35021;49.214;12.270;2022-07-12T10:12:40;22.00;51.60
49184;DHT22;35021;49.214;12.270;2022-07-12T10:15:14;22.10;51.60
49184;DHT22;35021;49.214;12.270;2022-07-12T10:17:52;22.10;51.60
49184;DHT22;35021;49.214;12.270;2022-07-12T10:20:28;22.10;51.70
49184;DHT22;35021;49.214;12.270;2022-07-12T10:25:46;22.00;51.80
49184;DHT22;35021;49.214;12.270;2022-07-12T10:28:17;22.00;51.90
49184;DHT22;35021;49.214;12.270;2022-07-12T10:30:46;22.00;52.00
49184;DHT22;35021;49.214;12.270;2022-07-12T10:33:17;22.00;52.00
49184;DHT22;35021;49.214;12.270;2022-07-12T10:36:03;22.00;52.00
49184;DHT22;35021;49.214;12.270;2022-07-12T10:38:40;22.00;52.10
49184;DHT22;35021;49.214;12.270;2022-07-12T10:41:20;22.00;52.10
49184;DHT22;35021;49.214;12.270;2022-07-12T10:44:05;22.00;52.10
49184;DHT22;35021;49.214;12.270;2022-07-12T10:46:33;22.00;52.10
49184;DHT22;35021;49.214;12.270;2022-07-12T10:49:26;22.00;52.10
49184;DHT22;35021;49.214;12.270;2022-07-12T10:52:17;22.00;52.10
49184;DHT22;35021;49.214;12.270;2022-07-12T11:00:11;22.00;52.20
49184;DHT22;35021;49.214;12.270;2022-07-12T11:02:38;22.00;52.20
49184;DHT22;35021;49.214;12.270;2022-07-12T11:05:07;22.00;52.30
49184;DHT22;35021;49.214;12.270;2022-07-12T11:07:37;21.90;52.30
49184;DHT22;35021;49.214;12.270;2022-07-12T11:10:06;22.00;52.20
49184;DHT22;35021;49.214;12.270;2022-07-12T11:12:35;21.90;52.00
49184;DHT22;35021;49.214;12.270;2022-07-12T11:15:04;21.90;52.00
49184;DHT22;35021;49.214;12.270;2022-07-12T11:17:38;21.90;51.80
49184;DHT22;35021;49.214;12.270;2022-07-12T11:20:10;21.90;51.80
49184;DHT22;35021;49.214;12.270;2022-07-12T11:22:40;22.00;51.90
49184;DHT22;35021;49.214;12.270;2022-07-12T11:25:10;22.00;51.80
49184;DHT22;35021;49.214;12.270;2022-07-12T11:27:38;22.00;51.70
49184;DHT22;35021;49.214;12.270;2022-07-12T11:30:13;22.00;51.20
49184;DHT22;35021;49.214;12.270;2022-07-12T11:32:58;22.00;50.80
49184;DHT22;35021;49.214;12.270;2022-07-12T11:35:27;22.00;50.80
49184;DHT22;35021;49.214;12.270;2022-07-12T11:37:56;22.00;50.80
49184;DHT22;35021;49.214;12.270;2022-07-12T11:40:28;22.00;50.70
49184;DHT22;35021;49.214;12.270;2022-07-12T11:43:01;22.10;50.80
49184;DHT22;35021;49.214;12.270;2022-07-12T11:45:30;22.10;50.90
49184;DHT22;35021;49.214;12.270;2022-07-12T11:48:01;22.10;51.00
49184;DHT22;35021;49.214;12.270;2022-07-12T11:50:30;22.10;51.10
49184;DHT22;35021;49.214;12.270;2022-07-12T11:53:02;22.10;50.80
49184;DHT22;35021;49.214;12.270;2022-07-12T11:55:29;22.00;50.60
49184;DHT22;35021;49.214;12.270;2022-07-12T11:58:06;22.00;50.60
49184;DHT22;35021;49.214;12.270;2022-07-12T12:00:33;22.00;50.90
49184;DHT22;35021;49.214;12.270;2022-07-12T12:03:00;22.00;50.90
49184;DHT22;35021;49.214;12.270;2022-07-12T12:05:28;22.00;51.00
49184;DHT22;35021;49.214;12.270;2022-07-12T12:07:55;22.00;51.10
49184;DHT22;35021;49.214;12.270;2022-07-12T12:10:22;22.00;50.90
49184;DHT22;35021;49.214;12.270;2022-07-12T12:12:49;22.00;50.60
49184;DHT22;35021;49.214;12.270;2022-07-12T12:15:29;22.00;50.50
49184;DHT22;35021;49.214;12.270;2022-07-12T12:18:05;22.00;50.50
49184;DHT22;35021;49.214;12.270;2022-07-12T12:20:35;22.00;50.50
49184;DHT22;35021;49.214;12.270;2022-07-12T12:23:09;22.00;50.50
49184;DHT22;35021;49.214;12.270;2022-07-12T12:25:41;22.00;50.30
49184;DHT22;35021;49.214;12.270;2022-07-12T12:28:08;22.00;50.20
49184;DHT22;35021;49.214;12.270;2022-07-12T12:30:55;22.00;50.20
49184;DHT22;35021;49.214;12.270;2022-07-12T12:33:39;22.00;50.30
49184;DHT22;35021;49.214;12.270;2022-07-12T12:38:41;22.10;50.30
49184;DHT22;35021;49.214;12.270;2022-07-12T12:41:10;22.10;50.40
49184;DHT22;35021;49.214;12.270;2022-07-12T12:43:37;22.10;50.30
49184;DHT22;35021;49.214;12.270;2022-07-12T12:46:05;22.10;50.40
49184;DHT22;35021;49.214;12.270;2022-07-12T12:48:33;22.10;50.40
49184;DHT22;35021;49.214;12.270;2022-07-12T12:51:12;22.10;50.50
49184;DHT22;35021;49.214;12.270;2022-07-12T12:53:40;22.10;50.40
49184;DHT22;35021;49.214;12.270;2022-07-12T12:56:11;22.10;50.30
49184;DHT22;35021;49.214;12.270;2022-07-12T12:58:38;22.10;50.30
49184;DHT22;35021;49.214;12.270;2022-07-12T13:01:07;22.10;50.40
49184;DHT22;35021;49.214;12.270;2022-07-12T13:03:34;22.10;50.40
49184;DHT22;35021;49.214;12.270;2022-07-12T13:06:02;22.10;50.60
49184;DHT22;35021;49.214;12.270;2022-07-12T13:08:30;22.10;50.90
49184;DHT22;35021;49.214;12.270;2022-07-12T13:10:57;22.10;50.90
49184;DHT22;35021;49.214;12.270;2022-07-12T13:13:42;22.10;50.60
49184;DHT22;35021;49.214;12.270;2022-07-12T13:16:09;22.10;50.40
49184;DHT22;35021;49.214;12.270;2022-07-12T13:18:42;22.10;50.10
49184;DHT22;35021;49.214;12.270;2022-07-12T13:21:09;22.10;50.30
49184;DHT22;35021;49.214;12.270;2022-07-12T13:23:36;22.10;50.20
49184;DHT22;35021;49.214;12.270;2022-07-12T13:26:03;22.10;50.10
49184;DHT22;35021;49.214;12.270;2022-07-12T13:28:30;22.10;50.10
49184;DHT22;35021;49.214;12.270;2022-07-12T13:30:59;22.10;50.40
49184;DHT22;35021;49.214;12.270;2022-07-12T13:33:26;22.10;50.50
49184;DHT22;35021;49.214;12.270;2022-07-12T13:35:57;22.10;50.40
49184;DHT22;35021;49.214;12.270;2022-07-12T13:38:23;22.10;50.10
49184;DHT22;35021;49.214;12.270;2022-07-12T13:40:52;22.10;49.90
49184;DHT22;35021;49.214;12.270;2022-07-12T13:43:19;22.10;49.70
49184;DHT22;35021;49.214;12.270;2022-07-12T13:45:49;22.10;49.40
49184;DHT22;35021;49.214;12.270;2022-07-12T13:48:17;22.20;49.40
49184;DHT22;35021;49.214;12.270;2022-07-12T13:50:45;22.20;49.40
49184;DHT22;35021;49.214;12.270;2022-07-12T13:53:33;22.20;49.40
49184;DHT22;35021;49.214;12.270;2022-07-12T13:56:00;22.20;49.60
49184;DHT22;35021;49.214;12.270;2022-07-12T13:58:27;22.20;49.60
49184;DHT22;35021;49.214;12.270;2022-07-12T14:00:56;22.20;49.60
49184;DHT22;35021;49.214;12.270;2022-07-12T14:03:23;22.20;49.50
49184;DHT22;35021;49.214;12.270;2022-07-12T14:05:50;22.20;49.10
49184;DHT22;35021;49.214;12.270;2022-07-12T14:08:17;22.30;49.10
49184;DHT22;35021;49.214;12.270;2022-07-12T14:10:44;22.30;49.00
49184;DHT22;35021;49.214;12.270;2022-07-12T14:13:13;22.30;48.70
49184;DHT22;35021;49.214;12.270;2022-07-12T14:15:39;22.30;48.60
49184;DHT22;35021;49.214;12.270;2022-07-12T14:18:08;22.40;48.40
49184;DHT22;35021;49.214;12.270;2022-07-12T14:20:36;22.40;48.40
49184;DHT22;35021;49.214;12.270;2022-07-12T14:23:04;22.40;48.40
49184;DHT22;35021;49.214;12.270;2022-07-12T14:25:33;22.40;48.50
49184;DHT22;35021;49.214;12.270;2022-07-12T14:28:00;22.40;48.20
49184;DHT22;35021;49.214;12.270;2022-07-12T14:30:28;22.40;48.40
49184;DHT22;35021;49.214;12.270;2022-07-12T14:32:55;22.40;48.50
49184;DHT22;35021;49.214;12.270;2022-07-12T14:35:25;22.40;48.30
49184;DHT22;35021;49.214;12.270;2022-07-12T14:37:53;22.40;48.50
49184;DHT22;35021;49.214;12.270;2022-07-12T14:40:22;22.40;48.60
49184;DHT22;35021;49.214;12.270;2022-07-12T14:42:50;22.40;48.60
49184;DHT22;35021;49.214;12.270;2022-07-12T14:45:23;22.30;48.40
49184;DHT22;35021;49.214;12.270;2022-07-12T14:47:52;22.40;48.20
49184;DHT22;35021;49.214;12.270;2022-07-12T14:50:20;22.30;47.90
49184;DHT22;35021;49.214;12.270;2022-07-12T14:52:48;22.40;48.10
49184;DHT22;35021;49.214;12.270;2022-07-12T14:55:15;22.40;48.30
49184;DHT22;35021;49.214;12.270;2022-07-12T14:57:42;22.40;48.10
49184;DHT22;35021;49.214;12.270;2022-07-12T15:00:09;22.40;48.00
49184;DHT22;35021;49.214;12.270;2022-07-12T15:02:37;22.40;47.90
49184;DHT22;35021;49.214;12.270;2022-07-12T15:05:05;22.50;47.70
49184;DHT22;35021;49.214;12.270;2022-07-12T15:07:33;22.40;47.80
49184;DHT22;35021;49.214;12.270;2022-07-12T15:10:00;22.40;48.00
49184;DHT22;35021;49.214;12.270;2022-07-12T15:12:27;22.40;47.80
49184;DHT22;35021;49.214;12.270;2022-07-12T15:14:55;22.50;47.90
49184;DHT22;35021;49.214;12.270;2022-07-12T15:17:25;22.40;47.80
49184;DHT22;35021;49.214;12.270;2022-07-12T15:19:53;22.40;47.80
49184;DHT22;35021;49.214;12.270;2022-07-12T15:22:20;22.40;47.70
49184;DHT22;35021;49.214;12.270;2022-07-12T15:24:47;22.40;47.40
49184;DHT22;35021;49.214;12.270;2022-07-12T15:27:14;22.50;47.50
49184;DHT22;35021;49.214;12.270;2022-07-12T15:29:41;22.50;48.20
49184;DHT22;35021;49.214;12.270;2022-07-12T15:32:09;22.50;47.50
49184;DHT22;35021;49.214;12.270;2022-07-12T15:34:39;22.50;47.10
49184;DHT22;35021;49.214;12.270;2022-07-12T15:37:06;22.50;47.20